Time;durP1;ratioP1;P1;durP2;ratioP2;P2;SDS_P1;SDS_P2;PMS_P1;PMS_P2;Temp;Humidity;BMP_temperature;BMP_pressure;BME280_temperature;BME280_humidity;BME280_pressure;Samples;Min_cycle;Max_cycle;Signal;HPM_P1;HPM_P2
2022/06/30 00:00:48;;;;;;;8.13;7.53;;;;;;;19.47;100.00;96090.06;5033023;28;20461;-76
2022/06/30 00:03:15;;;;;;;10.10;9.07;;;;;;;19.62;100.00;96090.78;5032948;28;20481;-77
2022/06/30 00:05:42;;;;;;;10.30;9.30;;;;;;;19.59;100.00;96091.56;5050762;28;20449;-77
2022/06/30 00:08:09;;;;;;;9.30;8.40;;;;;;;19.48;100.00;96061.31;5033553;28;20960;-77
2022/06/30 00:10:36;;;;;;;10.57;9.67;;;;;;;19.75;100.00;96091.88;5017694;28;20465;-77
2022/06/30 00:13:02;;;;;;;10.03;8.77;;;;;;;19.69;100.00;96073.91;5036666;28;20437;-76
2022/06/30 00:15:29;;;;;;;8.97;8.10;;;;;;;19.72;100.00;96079.25;5036306;28;20573;-76
2022/06/30 00:17:56;;;;;;;9.13;8.23;;;;;;;19.34;100.00;96040.69;5054463;28;20461;-77
2022/06/30 00:20:22;;;;;;;9.50;8.60;;;;;;;19.30;100.00;96025.78;5054446;28;20483;-77
2022/06/30 00:22:49;;;;;;;10.70;9.70;;;;;;;19.49;100.00;96042.16;5054360;28;20425;-77
2022/06/30 00:25:17;;;;;;;11.43;9.10;;;;;;;19.68;100.00;96069.69;5052587;28;20770;-77
2022/06/30 00:27:44;;;;;;;9.07;8.37;;;;;;;19.64;100.00;96047.50;5053960;28;20827;-77
2022/06/30 00:30:11;;;;;;;9.03;8.23;;;;;;;19.49;100.00;96068.97;5020094;28;20498;-77
2022/06/30 00:32:38;;;;;;;9.70;8.77;;;;;;;19.10;100.00;96050.38;5036150;28;20469;-76
2022/06/30 00:35:05;;;;;;;9.40;8.60;;;;;;;19.20;100.00;96064.88;5020230;28;21239;-77
2022/06/30 00:37:32;;;;;;;13.13;10.10;;;;;;;19.21;100.00;96069.09;5037857;28;21051;-76
2022/06/30 00:39:58;;;;;;;9.47;8.63;;;;;;;19.15;100.00;96052.66;5057491;28;21177;-76
2022/06/30 00:42:25;;;;;;;9.80;9.00;;;;;;;19.25;100.00;96047.66;5039846;28;20441;-76
2022/06/30 00:44:52;;;;;;;10.77;9.67;;;;;;;19.20;100.00;96048.81;5039305;28;20465;-77
2022/06/30 00:47:19;;;;;;;10.10;8.73;;;;;;;18.93;100.00;96053.09;5036373;28;20465;-77
2022/06/30 00:49:46;;;;;;;9.57;8.53;;;;;;;18.97;100.00;96069.97;5036036;28;20870;-76
2022/06/30 00:52:16;;;;;;;12.13;9.00;;;;;;;18.73;100.00;96023.31;5036010;28;20428;-76
2022/06/30 00:54:43;;;;;;;9.97;9.20;;;;;;;18.76;100.00;96033.25;5035877;28;20430;-77
2022/06/30 00:57:11;;;;;;;8.87;8.10;;;;;;;18.96;100.00;96063.81;5035607;28;20477;-76
2022/06/30 00:59:40;;;;;;;9.70;8.87;;;;;;;18.73;100.00;96042.06;5019323;28;20504;-76
2022/06/30 01:02:08;;;;;;;9.27;8.37;;;;;;;18.95;100.00;96083.72;5035477;28;20991;-76
2022/06/30 01:04:37;;;;;;;10.17;9.23;;;;;;;18.60;100.00;96021.00;5035696;28;20476;-76
2022/06/30 01:07:04;;;;;;;9.87;9.07;;;;;;;18.83;100.00;96060.00;5035281;28;20526;-76
2022/06/30 01:15:02;;;;;;;9.87;9.07;;;;;;;18.78;100.00;96053.13;5053423;28;20877;-77
2022/06/30 01:17:29;;;;;;;9.80;8.87;;;;;;;18.80;100.00;96050.84;5035538;28;20524;-76
2022/06/30 01:19:57;;;;;;;11.87;9.57;;;;;;;18.72;100.00;96033.25;5035308;28;20488;-76
2022/06/30 01:22:24;;;;;;;11.10;9.00;;;;;;;18.91;100.00;96056.16;5035176;28;20916;-76
2022/06/30 01:24:50;;;;;;;10.13;9.23;;;;;;;18.85;100.00;96058.50;5052068;28;20438;-76
2022/06/30 01:27:17;;;;;;;9.43;8.63;;;;;;;18.68;100.00;96023.69;5034426;28;20461;-77
2022/06/30 01:29:45;;;;;;;9.00;8.20;;;;;;;18.72;100.00;96027.91;5034884;28;20442;-77
2022/06/30 01:32:11;;;;;;;10.10;9.13;;;;;;;18.61;100.00;96051.22;5032200;28;20441;-77
2022/06/30 01:34:38;;;;;;;10.03;8.93;;;;;;;18.82;100.00;96059.25;5034864;28;20429;-77
2022/06/30 01:37:05;;;;;;;9.67;8.43;;;;;;;18.83;100.00;96060.78;5035122;28;20985;-76
2022/06/30 01:39:32;;;;;;;9.83;8.83;;;;;;;18.67;100.00;96035.56;5035069;28;20999;-76
2022/06/30 01:41:59;;;;;;;9.63;8.80;;;;;;;18.46;100.00;96009.56;5035484;28;20985;-76
2022/06/30 01:44:26;;;;;;;9.93;8.70;;;;;;;18.70;100.00;96042.84;5035321;28;20437;-76
2022/06/30 01:46:53;;;;;;;9.50;8.60;;;;;;;18.47;100.00;96037.88;5068212;28;20513;-77
2022/06/30 01:49:20;;;;;;;10.47;9.47;;;;;;;18.45;100.00;96027.53;5050610;28;20441;-76
2022/06/30 01:51:46;;;;;;;10.70;8.70;;;;;;;18.42;100.00;96030.97;5034573;28;20453;-77
2022/06/30 01:54:13;;;;;;;9.40;8.50;;;;;;;18.41;100.00;96044.72;5052300;28;20495;-76
2022/06/30 01:56:40;;;;;;;10.73;9.83;;;;;;;18.30;100.00;96047.44;5034572;28;20545;-76
2022/06/30 01:59:07;;;;;;;10.60;9.50;;;;;;;18.44;100.00;96066.16;5034806;28;20450;-77
2022/06/30 02:01:34;;;;;;;12.60;9.77;;;;;;;18.24;100.00;96033.66;5035088;28;20421;-75
2022/06/30 02:04:46;;;;;;;10.77;9.37;;;;;;;18.41;100.00;96031.34;5049811;28;20445;-74
2022/06/30 02:06:48;;;;;;;11.77;8.93;;;;;;;18.36;100.00;96023.72;5036387;28;20465;-75
2022/06/30 02:09:15;;;;;;;9.80;9.07;;;;;;;18.35;100.00;96039.00;5059538;28;20424;-75
2022/06/30 02:11:42;;;;;;;9.33;8.50;;;;;;;18.31;100.00;96028.31;5041828;28;20535;-75
2022/06/30 02:14:09;;;;;;;10.90;9.33;;;;;;;18.43;100.00;96055.81;5040959;28;20425;-75
2022/06/30 02:16:36;;;;;;;10.13;9.10;;;;;;;18.46;100.00;96063.09;5051753;28;20453;-75
2022/06/30 02:19:03;;;;;;;10.90;8.83;;;;;;;18.38;100.00;96064.25;5051947;28;20480;-76
2022/06/30 02:21:30;;;;;;;9.80;8.90;;;;;;;18.16;100.00;96039.38;5020260;28;20916;-75
2022/06/30 02:23:57;;;;;;;13.30;9.77;;;;;;;18.17;100.00;96041.69;5054750;28;20528;-75
2022/06/30 02:26:23;;;;;;;11.03;9.70;;;;;;;18.16;100.00;96050.09;5037159;28;20492;-74
2022/06/30 02:28:50;;;;;;;10.80;9.67;;;;;;;18.19;100.00;96044.00;5037540;28;20808;-74
2022/06/30 02:31:17;;;;;;;11.23;10.10;;;;;;;18.37;100.00;96060.81;5037392;28;20509;-75
2022/06/30 02:33:44;;;;;;;9.57;8.70;;;;;;;18.40;100.00;96040.53;5036222;28;20421;-75
2022/06/30 02:36:10;;;;;;;9.13;8.20;;;;;;;18.61;100.00;96052.00;5034717;28;20499;-75
2022/06/30 02:38:37;;;;;;;10.33;9.10;;;;;;;18.69;100.00;96058.13;5034620;28;20437;-74
2022/06/30 02:41:04;;;;;;;9.70;8.77;;;;;;;18.55;100.00;96066.91;5034452;28;20900;-72
2022/06/30 02:43:31;;;;;;;10.93;9.43;;;;;;;18.47;100.00;96059.28;5017964;28;20440;-72
2022/06/30 02:45:57;;;;;;;11.37;10.20;;;;;;;18.54;100.00;96073.41;5034580;28;20551;-72
2022/06/30 02:48:24;;;;;;;10.37;9.40;;;;;;;18.21;100.00;96047.81;5017923;28;20920;-72
2022/06/30 02:50:50;;;;;;;14.67;10.80;;;;;;;18.15;100.00;96048.56;5033893;28;20861;-73
2022/06/30 02:53:17;;;;;;;10.57;9.47;;;;;;;18.17;100.00;96052.41;5034250;28;20460;-73
2022/06/30 02:55:44;;;;;;;9.87;9.00;;;;;;;18.00;100.00;96039.75;5051954;28;20988;-73
2022/06/30 02:58:11;;;;;;;11.23;10.10;;;;;;;18.24;100.00;96071.13;5034065;28;20429;-73
2022/06/30 03:00:38;;;;;;;11.20;10.23;;;;;;;18.10;100.00;96065.78;5051987;28;20772;-73
2022/06/30 03:03:05;;;;;;;10.10;9.07;;;;;;;18.13;100.00;96075.69;5034599;28;20434;-73
2022/06/30 03:05:31;;;;;;;11.23;9.97;;;;;;;18.19;100.00;96079.56;5051913;28;20432;-73
2022/06/30 03:07:58;;;;;;;11.10;10.00;;;;;;;18.10;100.00;96046.28;5033860;28;20512;-73
2022/06/30 03:10:25;;;;;;;10.93;9.83;;;;;;;18.29;100.00;96059.25;5033877;28;20425;-73
2022/06/30 03:12:52;;;;;;;11.13;10.00;;;;;;;17.82;100.00;95998.88;5067118;28;20432;-73
2022/06/30 03:15:18;;;;;;;13.77;10.87;;;;;;;18.29;100.00;96084.13;5067117;28;20429;-73
2022/06/30 03:17:45;;;;;;;11.30;10.30;;;;;;;18.00;100.00;96042.44;5033805;28;20524;-74
2022/06/30 03:20:12;;;;;;;10.47;9.57;;;;;;;18.18;100.00;96056.59;5033899;28;20444;-74
2022/06/30 03:22:39;;;;;;;11.07;10.17;;;;;;;18.38;100.00;96080.31;5017551;28;20437;-74
2022/06/30 03:25:07;;;;;;;11.93;8.70;;;;;;;18.47;100.00;96073.44;5033733;28;20434;-74
2022/06/30 03:27:34;;;;;;;11.33;9.70;;;;;;;18.14;100.00;96039.00;5033042;28;20516;-74
2022/06/30 03:30:00;;;;;;;10.70;9.70;;;;;;;18.06;100.00;96037.50;5017119;28;20441;-74
2022/06/30 03:32:27;;;;;;;11.17;10.10;;;;;;;18.16;100.00;96061.59;5033319;28;20496;-74
2022/06/30 03:34:54;;;;;;;11.50;10.43;;;;;;;18.05;100.00;96036.72;5050338;28;20425;-75
2022/06/30 03:37:26;;;;;;;13.80;9.70;;;;;;;18.25;100.00;96069.22;5034306;28;20461;-74
2022/06/30 03:39:53;;;;;;;13.17;12.17;;;;;;;18.02;100.00;96027.53;5033749;28;20480;-73
2022/06/30 03:42:20;;;;;;;11.03;10.10;;;;;;;18.19;100.00;96063.50;5051777;28;21002;-73
2022/06/30 03:44:47;;;;;;;11.40;10.40;;;;;;;18.25;100.00;96058.50;5051657;28;20436;-74
2022/06/30 03:47:13;;;;;;;12.07;10.30;;;;;;;18.14;100.00;96045.13;5039885;28;20453;-73
2022/06/30 03:49:40;;;;;;;11.23;10.33;;;;;;;18.30;100.00;96068.84;5038246;28;21004;-73
2022/06/30 03:52:08;;;;;;;11.77;9.77;;;;;;;18.39;100.00;96076.47;5039879;28;21000;-74
2022/06/30 03:54:34;;;;;;;10.60;9.37;;;;;;;18.23;100.00;96050.88;5039461;28;20421;-73
2022/06/30 03:57:01;;;;;;;11.20;10.13;;;;;;;18.27;100.00;96066.91;5038570;28;20471;-74
2022/06/30 03:59:35;;;;;;;11.37;10.37;;;;;;;18.16;100.00;96060.78;5055191;28;20475;-74
2022/06/30 04:02:03;;;;;;;11.63;10.50;;;;;;;18.02;100.00;96056.19;5037305;28;20532;-74
2022/06/30 04:04:30;;;;;;;11.10;10.20;;;;;;;18.00;100.00;96053.91;5053428;28;21036;-73
2022/06/30 04:06:56;;;;;;;11.20;10.20;;;;;;;18.06;100.00;96056.97;5020645;28;20508;-74
2022/06/30 04:09:23;;;;;;;10.40;9.50;;;;;;;18.12;100.00;96068.81;5037188;28;20436;-73
2022/06/30 04:11:50;;;;;;;11.20;10.13;;;;;;;18.30;100.00;96090.25;5037405;28;20461;-73
2022/06/30 04:14:17;;;;;;;11.97;10.83;;;;;;;18.20;100.00;96091.78;5036668;28;20864;-74
2022/06/30 04:16:44;;;;;;;12.90;11.60;;;;;;;18.09;100.00;96079.53;5037130;28;20449;-74
2022/06/30 04:19:11;;;;;;;12.23;9.30;;;;;;;17.98;100.00;96071.47;5053186;28;20445;-74
2022/06/30 04:21:38;;;;;;;12.37;10.63;;;;;;;17.97;100.00;96068.03;5036821;28;20432;-74
2022/06/30 04:24:06;;;;;;;11.80;10.80;;;;;;;18.20;100.00;96104.41;5037074;28;20495;-73
2022/06/30 04:26:32;;;;;;;9.73;8.93;;;;;;;18.19;100.00;96098.28;5054017;28;20468;-73
2022/06/30 04:28:59;;;;;;;11.17;10.07;;;;;;;18.13;100.00;96101.69;5036239;28;20505;-73
2022/06/30 04:34:11;;;;;;;11.37;10.30;;;;;;;18.30;100.00;96099.06;5036588;28;20512;-74
2022/06/30 04:36:38;;;;;;;11.77;10.57;;;;;;;17.97;100.00;96049.31;5036357;28;20484;-73
2022/06/30 04:39:05;;;;;;;10.40;9.50;;;;;;;18.09;100.00;96076.84;5036337;28;20430;-74
2022/06/30 04:41:32;;;;;;;11.50;10.43;;;;;;;18.04;100.00;96074.56;5036348;28;20942;-73
2022/06/30 04:44:00;;;;;;;12.43;11.23;;;;;;;18.09;100.00;96080.28;5052911;28;20421;-73
2022/06/30 04:46:27;;;;;;;10.70;9.80;;;;;;;18.24;100.00;96081.06;5035766;28;20841;-74
2022/06/30 04:48:54;;;;;;;12.00;10.90;;;;;;;18.42;100.00;96108.59;5054246;28;20426;-73
2022/06/30 04:51:21;;;;;;;12.50;10.90;;;;;;;18.38;100.00;96094.47;5035885;28;20476;-74
2022/06/30 04:53:48;;;;;;;10.10;9.30;;;;;;;18.29;100.00;96080.69;5052717;28;20816;-74
2022/06/30 04:56:16;;;;;;;10.60;9.53;;;;;;;18.53;100.00;96109.38;5035220;28;20461;-74
2022/06/30 04:58:43;;;;;;;10.90;9.90;;;;;;;18.16;100.00;96096.38;5085187;28;20432;-73
2022/06/30 05:01:10;;;;;;;12.77;10.03;;;;;;;17.93;100.00;96093.28;5055631;28;20483;-74
2022/06/30 05:03:37;;;;;;;11.50;10.50;;;;;;;17.77;100.00;96079.47;5038981;28;20535;-75
2022/06/30 05:06:05;;;;;;;10.50;9.53;;;;;;;17.78;100.00;96067.63;5055900;28;20507;-73
2022/06/30 05:08:32;;;;;;;11.30;10.20;;;;;;;18.15;100.00;96118.91;5051714;28;20919;-74
2022/06/30 05:10:59;;;;;;;11.20;10.07;;;;;;;18.09;100.00;96119.66;5063863;28;20462;-74
2022/06/30 05:13:27;;;;;;;12.20;10.93;;;;;;;18.06;100.00;96117.75;5051930;28;20942;-73
2022/06/30 05:15:54;;;;;;;11.17;10.20;;;;;;;18.00;100.00;96086.00;5035322;28;20469;-74
2022/06/30 05:18:21;;;;;;;10.80;9.90;;;;;;;18.22;100.00;96110.13;5035414;28;20532;-74
2022/06/30 05:20:48;;;;;;;11.07;9.70;;;;;;;18.44;100.00;96127.75;5067329;28;20853;-74
2022/06/30 05:23:15;;;;;;;14.30;10.73;;;;;;;18.44;100.00;96105.56;5060869;28;20444;-74
2022/06/30 05:28:27;;;;;;;12.00;10.90;;;;;;;18.86;100.00;96118.97;5043916;28;20428;-74
2022/06/30 05:30:55;;;;;;;10.27;9.33;;;;;;;18.54;100.00;96100.19;5039548;28;20441;-73
2022/06/30 05:33:22;;;;;;;13.20;11.90;;;;;;;18.55;100.00;96090.25;5034922;28;20496;-73
2022/06/30 05:35:51;;;;;;;10.53;9.57;;;;;;;18.89;100.00;96091.41;5035351;28;20802;-73
2022/06/30 05:38:19;;;;;;;10.43;9.53;;;;;;;19.23;100.00;96122.31;5051227;28;20496;-74
2022/06/30 05:40:46;;;;;;;11.00;9.73;;;;;;;19.22;100.00;96121.56;5053038;28;20432;-73
2022/06/30 05:43:16;;;;;;;12.57;10.37;;;;;;;19.31;100.00;96129.19;5035172;28;20834;-73
2022/06/30 05:45:51;;;;;;;13.90;12.27;;;;;;;19.37;100.00;96120.38;5035109;28;20445;-73
2022/06/30 05:48:18;;;;;;;12.13;11.17;;;;;;;19.47;100.00;96082.03;5035347;28;20402;-74
2022/06/30 05:50:45;;;;;;;11.50;10.50;;;;;;;19.29;100.00;96094.75;5034835;28;20499;-74
2022/06/30 05:53:12;;;;;;;13.63;12.20;;;;;;;19.86;100.00;96113.28;5034956;28;20480;-74
2022/06/30 05:55:39;;;;;;;12.07;10.60;;;;;;;19.89;100.00;96107.13;5052995;28;20445;-74
2022/06/30 05:58:07;;;;;;;13.43;12.27;;;;;;;19.74;100.00;96103.00;5034741;28;20437;-74
2022/06/30 06:00:34;;;;;;;12.90;11.60;;;;;;;20.09;100.00;96118.16;5052770;28;20421;-74
2022/06/30 06:03:00;;;;;;;13.37;12.17;;;;;;;19.85;100.00;96082.25;5035028;28;20788;-74
2022/06/30 06:05:27;;;;;;;18.47;11.97;;;;;;;19.92;100.00;96108.28;5018201;28;20736;-74
2022/06/30 06:07:54;;;;;;;15.87;10.90;;;;;;;20.21;100.00;96112.31;5033679;28;20437;-74
2022/06/30 06:10:21;;;;;;;11.70;10.50;;;;;;;20.52;100.00;96134.75;5052284;28;20414;-74
2022/06/30 06:12:48;;;;;;;12.40;11.30;;;;;;;20.65;100.00;96127.75;5047324;28;20494;-75
2022/06/30 06:15:15;;;;;;;11.80;10.60;;;;;;;20.57;100.00;96102.13;5019443;28;20492;-74
2022/06/30 06:17:44;;;;;;;12.33;11.17;;;;;;;20.88;100.00;96137.16;5034237;28;20491;-74
2022/06/30 06:20:12;;;;;;;16.30;11.20;;;;;;;20.60;100.00;96132.81;5052232;28;20445;-74
2022/06/30 06:22:40;;;;;;;12.10;10.87;;;;;;;20.55;100.00;96136.66;5034342;28;20425;-74
2022/06/30 06:25:07;;;;;;;12.47;11.33;;;;;;;20.59;100.00;96105.19;5034332;28;20988;-74
2022/06/30 06:27:34;;;;;;;12.20;10.90;;;;;;;20.70;100.00;96088.19;5017383;28;20552;-74
2022/06/30 06:30:03;;;;;;;12.10;11.17;;;;;;;20.82;100.00;96128.75;5034419;28;20437;-74
2022/06/30 06:32:30;;;;;;;11.77;10.67;;;;;;;21.17;100.00;96127.66;5034587;28;20519;-75
2022/06/30 06:34:58;;;;;;;10.87;9.87;;;;;;;21.49;100.00;96091.59;5052008;28;20426;-75
2022/06/30 06:37:24;;;;;;;10.60;9.60;;;;;;;21.62;100.00;96108.75;5033622;28;20513;-74
2022/06/30 06:39:51;;;;;;;11.90;10.23;;;;;;;21.25;100.00;96133.78;5051850;28;20418;-75
2022/06/30 06:42:18;;;;;;;11.50;10.50;;;;;;;21.38;100.00;96128.66;5015596;28;20502;-75
2022/06/30 06:44:49;;;;;;;12.07;10.80;;;;;;;21.54;100.00;96134.22;5033997;28;20528;-74
2022/06/30 06:47:16;;;;;;;11.83;10.80;;;;;;;21.63;100.00;96117.56;5033765;28;20578;-74
2022/06/30 06:49:44;;;;;;;12.40;11.33;;;;;;;21.84;100.00;96114.63;5051490;28;20792;-75
2022/06/30 06:52:11;;;;;;;10.13;9.13;;;;;;;22.16;100.00;96111.50;5033472;28;20564;-74
2022/06/30 06:54:38;;;;;;;11.40;10.37;;;;;;;22.46;100.00;96112.63;5057963;28;20429;-74
2022/06/30 06:57:05;;;;;;;12.47;9.70;;;;;;;22.35;100.00;96100.06;5089206;28;20509;-74
2022/06/30 06:59:34;;;;;;;11.60;9.43;;;;;;;22.43;100.00;96081.84;5068789;28;20464;-74
2022/06/30 07:02:01;;;;;;;10.60;9.60;;;;;;;22.73;100.00;96078.31;5069278;28;20433;-74
2022/06/30 07:04:28;;;;;;;10.60;9.20;;;;;;;23.16;100.00;96099.13;5033540;28;20436;-74
2022/06/30 07:06:55;;;;;;;11.37;10.10;;;;;;;23.42;100.00;96110.97;5033536;28;20972;-75
2022/06/30 07:09:22;;;;;;;9.90;9.00;;;;;;;23.10;100.00;96114.25;5051568;28;20418;-75
2022/06/30 07:11:49;;;;;;;10.20;8.93;;;;;;;23.30;100.00;96096.16;5017219;28;20793;-74
2022/06/30 07:14:16;;;;;;;12.90;10.80;;;;;;;23.30;100.00;96106.97;5033845;28;20912;-74
2022/06/30 07:16:47;;;;;;;12.10;10.00;;;;;;;23.30;100.00;96085.38;5034338;28;20445;-74
2022/06/30 07:19:14;;;;;;;11.27;10.37;;;;;;;23.48;100.00;96049.94;5051334;28;20420;-74
2022/06/30 07:21:42;;;;;;;11.13;10.17;;;;;;;23.24;100.00;96065.47;5034480;28;20876;-75
2022/06/30 07:24:09;;;;;;;10.63;9.23;;;;;;;23.99;100.00;96124.09;5033807;28;20934;-74
2022/06/30 07:26:36;;;;;;;9.90;9.10;;;;;;;24.00;100.00;96095.16;5033620;28;20493;-75
2022/06/30 07:29:03;;;;;;;11.43;9.67;;;;;;;24.45;100.00;96106.88;5033513;28;20453;-74
2022/06/30 07:31:30;;;;;;;9.47;8.67;;;;;;;24.65;100.00;96081.69;5033634;28;20875;-74
2022/06/30 07:33:57;;;;;;;10.53;8.50;;;;;;;24.52;100.00;96086.25;5033030;28;20437;-74
2022/06/30 07:36:24;;;;;;;11.23;10.13;;;;;;;24.39;100.00;96107.78;5051555;28;20480;-75
2022/06/30 07:38:51;;;;;;;11.13;8.90;;;;;;;24.15;100.00;96077.44;5016616;28;20804;-74
2022/06/30 07:41:18;;;;;;;10.83;9.80;;;;;;;24.83;100.00;96109.03;5017358;28;20442;-75
2022/06/30 07:43:47;;;;;;;10.47;9.47;;;;;;;23.84;100.00;96096.63;5033938;28;20994;-74
2022/06/30 07:46:14;;;;;;;12.00;10.30;;;;;;;24.25;100.00;96097.28;5029984;28;20476;-74
2022/06/30 07:48:43;;;;;;;10.50;9.33;;;;;;;24.36;100.00;96078.91;5034429;28;20449;-74
2022/06/30 07:51:10;;;;;;;9.93;8.87;;;;;;;24.91;100.00;96112.34;5033175;28;20484;-75
2022/06/30 07:53:37;;;;;;;9.60;8.87;;;;;;;24.85;100.00;96076.94;5049954;28;20547;-74
2022/06/30 07:56:04;;;;;;;9.30;8.50;;;;;;;25.04;100.00;96105.06;5050155;28;20446;-74
2022/06/30 07:58:30;;;;;;;13.77;9.60;;;;;;;24.96;100.00;96099.03;5051516;28;20844;-74
2022/06/30 08:00:57;;;;;;;9.97;7.33;;;;;;;25.58;100.00;96109.81;5033924;28;20425;-74
2022/06/30 08:03:24;;;;;;;8.70;7.90;;;;;;;25.39;100.00;96094.50;5034008;28;20424;-74
2022/06/30 08:05:52;;;;;;;11.07;8.27;;;;;;;25.75;100.00;96078.75;5034142;28;20453;-73
2022/06/30 08:08:19;;;;;;;9.13;8.33;;;;;;;26.16;100.00;96091.47;5050379;28;20523;-75
2022/06/30 08:10:46;;;;;;;11.40;8.77;;;;;;;26.11;100.00;96102.84;5033787;28;20468;-75
2022/06/30 08:13:12;;;;;;;8.47;7.87;;;;;;;26.38;100.00;96080.00;5051299;28;20535;-74
2022/06/30 08:15:39;;;;;;;7.93;7.23;;;;;;;26.70;100.00;96084.38;5042638;28;20445;-75
2022/06/30 08:18:07;;;;;;;9.40;8.47;;;;;;;26.54;100.00;96095.38;5053419;28;20468;-74
2022/06/30 08:20:34;;;;;;;9.80;8.90;;;;;;;26.74;100.00;96098.59;5053232;28;20437;-75
2022/06/30 08:23:01;;;;;;;8.67;7.90;;;;;;;26.74;100.00;96079.59;5037468;28;20441;-75
2022/06/30 08:25:28;;;;;;;8.83;8.07;;;;;;;26.85;100.00;96107.16;5050254;28;20500;-74
2022/06/30 08:27:55;;;;;;;12.73;11.53;;;;;;;26.23;100.00;96099.38;5047082;28;20429;-74
2022/06/30 08:30:23;;;;;;;10.97;9.87;;;;;;;26.59;100.00;96092.13;5034050;28;20440;-75
2022/06/30 08:32:50;;;;;;;8.93;8.23;;;;;;;27.06;100.00;96082.00;5036568;28;20472;-75
2022/06/30 08:35:17;;;;;;;8.67;7.93;;;;;;;27.48;97.38;96094.53;5048005;28;20463;-75
2022/06/30 08:38:02;;;;;;;9.13;8.27;;;;;;;27.01;97.55;96090.72;5039414;28;20921;-74
2022/06/30 08:43:14;;;;;;;9.27;8.40;;;;;;;26.80;98.44;96073.16;5036306;28;20475;-74
2022/06/30 08:45:43;;;;;;;9.80;8.87;;;;;;;26.33;99.24;96067.72;5054616;28;20445;-74
2022/06/30 08:48:10;;;;;;;9.33;8.60;;;;;;;27.05;95.10;96066.91;5036887;28;20472;-74
2022/06/30 08:50:38;;;;;;;8.57;7.77;;;;;;;27.53;92.77;96077.66;5036509;28;20469;-75
2022/06/30 08:53:16;;;;;;;8.70;8.00;;;;;;;27.35;93.19;96040.28;5036830;28;20488;-75
2022/06/30 08:55:42;;;;;;;9.67;8.10;;;;;;;27.04;95.56;96078.22;5036066;28;20872;-75
2022/06/30 08:58:09;;;;;;;12.33;8.30;;;;;;;27.52;93.88;96065.28;5054122;28;20457;-75
2022/06/30 09:00:37;;;;;;;11.73;7.50;;;;;;;28.23;91.03;96063.34;5035938;28;20438;-75
2022/06/30 09:03:04;;;;;;;9.20;8.40;;;;;;;27.24;91.26;96077.91;5019724;28;20433;-75
2022/06/30 09:05:31;;;;;;;8.80;8.10;;;;;;;27.10;89.65;96082.63;5019734;28;20810;-75
2022/06/30 09:07:58;;;;;;;8.60;7.77;;;;;;;26.94;91.14;96069.22;5019520;28;20496;-75
2022/06/30 09:10:50;;;;;;;9.40;8.47;;;;;;;27.47;88.19;96091.03;5039278;28;20445;-74
2022/06/30 09:13:18;;;;;;;8.93;8.10;;;;;;;27.39;87.88;96078.94;5050758;28;20449;-74
2022/06/30 09:15:44;;;;;;;11.33;7.63;;;;;;;26.73;90.21;96064.53;5035896;28;20465;-74
2022/06/30 09:18:23;;;;;;;9.03;8.33;;;;;;;28.05;85.73;96078.88;5036345;28;20437;-75
2022/06/30 09:20:49;;;;;;;8.70;8.00;;;;;;;26.88;87.98;96078.38;5035489;28;20528;-74
2022/06/30 09:23:19;;;;;;;9.60;7.80;;;;;;;26.89;87.95;96082.59;5036071;28;20499;-75
2022/06/30 09:25:49;;;;;;;8.60;7.80;;;;;;;26.54;87.87;96063.56;5035513;28;20476;-74
2022/06/30 09:28:36;;;;;;;8.53;7.80;;;;;;;26.50;88.22;96065.66;5053188;28;20540;-75
2022/06/30 09:31:03;;;;;;;8.40;7.60;;;;;;;26.90;87.01;96076.72;5053327;28;20461;-74
2022/06/30 09:33:35;;;;;;;9.37;8.47;;;;;;;27.29;85.37;96061.06;5051803;28;20496;-74
2022/06/30 09:36:22;;;;;;;11.47;8.20;;;;;;;26.81;87.22;96079.34;5035161;28;20441;-74
2022/06/30 09:39:07;;;;;;;8.63;7.90;;;;;;;26.43;87.58;96060.44;5019910;28;20425;-75
2022/06/30 09:41:35;;;;;;;8.37;7.57;;;;;;;26.57;86.50;96076.25;5034915;28;20445;-74
2022/06/30 09:44:07;;;;;;;7.47;6.87;;;;;;;26.96;85.93;96058.66;5035244;28;20421;-74
2022/06/30 09:46:36;;;;;;;6.50;5.90;;;;;;;27.89;81.61;96058.84;5035110;28;20461;-75
2022/06/30 09:49:04;;;;;;;10.17;7.67;;;;;;;28.16;78.83;96060.16;5035006;28;20445;-75
2022/06/30 09:51:41;;;;;;;7.37;6.60;;;;;;;28.54;77.67;96079.63;5018714;28;20433;-75
2022/06/30 09:54:10;;;;;;;8.60;7.80;;;;;;;28.43;77.06;96076.56;5048118;28;20449;-75
2022/06/30 09:56:37;;;;;;;8.07;7.37;;;;;;;28.67;77.53;96078.75;5034862;28;20453;-76
2022/06/30 09:59:06;;;;;;;8.43;7.47;;;;;;;28.52;76.31;96082.03;5035075;28;20839;-75
2022/06/30 10:01:52;;;;;;;8.87;7.97;;;;;;;28.10;75.90;96067.41;5034872;28;20429;-74
2022/06/30 10:04:19;;;;;;;8.20;7.50;;;;;;;27.43;76.38;96040.78;5034607;28;20454;-75
2022/06/30 10:06:47;;;;;;;8.33;7.37;;;;;;;27.00;77.90;96069.44;5034658;28;20461;-74
2022/06/30 10:09:17;;;;;;;7.73;6.93;;;;;;;27.16;79.68;96069.28;5044216;28;20483;-74
2022/06/30 10:11:46;;;;;;;7.37;6.67;;;;;;;27.31;81.10;96064.84;5038013;28;20428;-74
2022/06/30 10:14:16;;;;;;;9.20;7.63;;;;;;;26.93;81.89;96028.94;5053950;28;20488;-75
2022/06/30 10:16:43;;;;;;;7.70;7.00;;;;;;;27.17;82.80;96037.44;5054516;28;20463;-75
2022/06/30 10:19:11;;;;;;;12.87;7.57;;;;;;;27.26;81.42;96042.94;5072199;28;20471;-75
2022/06/30 10:21:39;;;;;;;7.93;7.03;;;;;;;27.59;79.54;96048.72;5054119;28;20421;-75
2022/06/30 10:24:06;;;;;;;8.80;8.03;;;;;;;28.34;78.09;96059.50;5054376;28;20417;-74
2022/06/30 10:29:19;;;;;;;8.30;7.60;;;;;;;28.98;75.24;96054.13;5057209;28;20417;-75
2022/06/30 10:31:54;;;;;;;7.73;6.93;;;;;;;29.14;72.67;96060.03;5052133;28;20422;-76
2022/06/30 10:34:34;;;;;;;7.90;7.30;;;;;;;28.07;75.35;96022.06;5058958;28;20999;-75
2022/06/30 10:37:19;;;;;;;8.20;7.40;;;;;;;28.65;74.14;96054.72;5044902;28;20453;-76
2022/06/30 10:40:19;;;;;;;7.97;7.30;;;;;;;29.10;73.79;96047.78;5064800;28;20429;-75
2022/06/30 10:42:54;;;;;;;7.13;6.43;;;;;;;29.56;71.32;96048.50;5085693;28;20409;-75
2022/06/30 10:45:26;;;;;;;8.07;7.30;;;;;;;29.57;70.55;96050.00;5071609;28;20427;-75
2022/06/30 10:48:05;;;;;;;7.30;6.70;;;;;;;29.39;70.68;96053.50;5053430;28;20825;-75
2022/06/30 10:50:38;;;;;;;7.93;7.13;;;;;;;29.96;67.77;96047.47;5037857;28;20417;-75
2022/06/30 10:53:07;;;;;;;6.93;6.33;;;;;;;30.08;68.93;96032.13;5051832;28;20537;-75
2022/06/30 10:55:44;;;;;;;7.97;6.87;;;;;;;30.17;66.31;96011.00;5032978;28;20481;-75
2022/06/30 10:58:11;;;;;;;7.30;6.60;;;;;;;29.49;68.30;96034.44;5033509;28;20468;-75
2022/06/30 11:01:04;;;;;;;8.10;6.33;;;;;;;29.21;69.02;96022.81;5033467;28;20445;-75
2022/06/30 11:03:34;;;;;;;7.07;6.37;;;;;;;28.98;69.59;96018.75;5083097;28;20991;-75
2022/06/30 11:06:09;;;;;;;9.70;6.27;;;;;;;28.65;69.90;96026.72;5053970;28;20483;-74
2022/06/30 11:08:36;;;;;;;8.80;5.93;;;;;;;29.27;68.22;96013.56;5032615;28;20440;-75
2022/06/30 11:11:24;;;;;;;6.43;5.83;;;;;;;29.61;65.05;96019.84;5051295;28;20552;-75
2022/06/30 11:14:11;;;;;;;6.37;5.87;;;;;;;28.36;65.35;96019.00;5029946;28;20459;-74
2022/06/30 11:16:39;;;;;;;8.20;6.50;;;;;;;28.28;65.18;95983.16;5030340;28;20551;-74
2022/06/30 11:19:20;;;;;;;6.70;6.07;;;;;;;29.77;64.58;96029.66;5033334;28;20425;-75
2022/06/30 11:21:47;;;;;;;8.43;7.43;;;;;;;30.17;63.43;95991.91;5052481;28;20432;-75
2022/06/30 11:24:16;;;;;;;7.63;6.90;;;;;;;30.60;63.02;96011.66;5053374;28;20423;-75
2022/06/30 11:29:30;;;;;;;6.73;6.10;;;;;;;30.82;59.33;96022.28;5031198;28;20462;-75
2022/06/30 11:32:01;;;;;;;7.13;6.53;;;;;;;31.06;59.18;96035.88;5013595;28;20422;-75
2022/06/30 11:34:36;;;;;;;6.63;6.13;;;;;;;31.62;59.50;96018.50;5031170;28;20452;-75
2022/06/30 11:37:03;;;;;;;6.60;6.00;;;;;;;31.91;58.79;96022.44;5013345;28;20458;-75
2022/06/30 11:39:31;;;;;;;7.03;6.37;;;;;;;30.56;59.10;96000.16;5048879;28;20459;-75
2022/06/30 11:42:01;;;;;;;7.23;6.17;;;;;;;31.34;59.40;96020.00;5032694;28;20920;-75
2022/06/30 11:44:34;;;;;;;7.00;6.47;;;;;;;31.95;57.33;96014.81;5050773;28;20433;-74